sensor_id;sensor_type;location;lat;lon;timestamp;temperature;humidity
11399;DHT22;5755;48.116;11.608;2023-11-19T00:02:25;4.90;99.90
11399;DHT22;5755;48.116;11.608;2023-11-19T00:04:52;4.90;99.90
11399;DHT22;5755;48.116;11.608;2023-11-19T00:07:19;4.90;99.90
11399;DHT22;5755;48.116;11.608;2023-11-19T00:09:46;5.00;99.90
11399;DHT22;5755;48.116;11.608;2023-11-19T00:12:13;5.00;99.90
11399;DHT22;5755;48.116;11.608;2023-11-19T00:14:41;5.10;99.90
11399;DHT22;5755;48.116;11.608;2023-11-19T00:17:08;5.10;99.90
11399;DHT22;5755;48.116;11.608;2023-11-19T00:19:35;5.20;99.90
11399;DHT22;5755;48.116;11.608;2023-11-19T00:22:02;5.20;99.90
11399;DHT22;5755;48.116;11.608;2023-11-19T00:24:29;5.10;99.90
11399;DHT22;5755;48.116;11.608;2023-11-19T00:26:56;5.20;99.90
11399;DHT22;5755;48.116;11.608;2023-11-19T00:29:23;5.30;99.90
11399;DHT22;5755;48.116;11.608;2023-11-19T00:31:51;5.30;99.90
11399;DHT22;5755;48.116;11.608;2023-11-19T00:34:18;5.30;99.90
11399;DHT22;5755;48.116;11.608;2023-11-19T00:36:48;5.40;99.90
11399;DHT22;5755;48.116;11.608;2023-11-19T00:39:14;5.50;99.90
11399;DHT22;5755;48.116;11.608;2023-11-19T00:41:41;5.50;99.90
11399;DHT22;5755;48.116;11.608;2023-11-19T00:44:08;5.50;99.90
11399;DHT22;5755;48.116;11.608;2023-11-19T00:46:35;5.50;99.90
11399;DHT22;5755;48.116;11.608;2023-11-19T00:49:03;5.50;99.90
11399;DHT22;5755;48.116;11.608;2023-11-19T00:51:30;5.60;99.90
11399;DHT22;5755;48.116;11.608;2023-11-19T00:53:58;5.60;99.90
11399;DHT22;5755;48.116;11.608;2023-11-19T00:56:26;5.60;99.90
11399;DHT22;5755;48.116;11.608;2023-11-19T00:58:53;5.60;99.90
11399;DHT22;5755;48.116;11.608;2023-11-19T01:01:21;5.60;99.90
11399;DHT22;5755;48.116;11.608;2023-11-19T01:03:48;5.60;99.90
11399;DHT22;5755;48.116;11.608;2023-11-19T01:06:26;5.50;99.90
11399;DHT22;5755;48.116;11.608;2023-11-19T01:08:53;5.60;99.90
11399;DHT22;5755;48.116;11.608;2023-11-19T01:11:20;5.70;99.90
11399;DHT22;5755;48.116;11.608;2023-11-19T01:13:47;5.70;99.90
11399;DHT22;5755;48.116;11.608;2023-11-19T01:16:14;5.80;99.90
11399;DHT22;5755;48.116;11.608;2023-11-19T01:18:41;5.80;99.90
11399;DHT22;5755;48.116;11.608;2023-11-19T01:21:08;5.80;99.90
11399;DHT22;5755;48.116;11.608;2023-11-19T01:23:36;5.80;99.90
11399;DHT22;5755;48.116;11.608;2023-11-19T01:26:04;5.70;99.90
11399;DHT22;5755;48.116;11.608;2023-11-19T01:28:31;5.80;99.90
11399;DHT22;5755;48.116;11.608;2023-11-19T01:30:58;5.80;99.90
11399;DHT22;5755;48.116;11.608;2023-11-19T01:33:25;5.70;99.90
11399;DHT22;5755;48.116;11.608;2023-11-19T01:35:53;5.70;99.90
11399;DHT22;5755;48.116;11.608;2023-11-19T01:38:20;5.80;99.90
11399;DHT22;5755;48.116;11.608;2023-11-19T01:40:48;5.70;99.90
11399;DHT22;5755;48.116;11.608;2023-11-19T01:43:33;5.80;99.90
11399;DHT22;5755;48.116;11.608;2023-11-19T01:46:00;5.80;99.90
11399;DHT22;5755;48.116;11.608;2023-11-19T01:48:27;5.90;99.90
11399;DHT22;5755;48.116;11.608;2023-11-19T01:50:55;5.90;99.90
11399;DHT22;5755;48.116;11.608;2023-11-19T01:53:23;5.90;99.90
11399;DHT22;5755;48.116;11.608;2023-11-19T01:55:51;6.00;99.90
11399;DHT22;5755;48.116;11.608;2023-11-19T01:58:19;6.00;99.90
11399;DHT22;5755;48.116;11.608;2023-11-19T02:00:46;6.10;99.90
11399;DHT22;5755;48.116;11.608;2023-11-19T02:03:14;6.00;99.90
11399;DHT22;5755;48.116;11.608;2023-11-19T02:05:41;6.20;99.90
11399;DHT22;5755;48.116;11.608;2023-11-19T02:08:08;6.20;99.90
11399;DHT22;5755;48.116;11.608;2023-11-19T02:10:35;6.10;99.90
11399;DHT22;5755;48.116;11.608;2023-11-19T02:13:04;6.10;99.90
11399;DHT22;5755;48.116;11.608;2023-11-19T02:15:32;6.10;99.90
11399;DHT22;5755;48.116;11.608;2023-11-19T02:18:20;6.20;99.90
11399;DHT22;5755;48.116;11.608;2023-11-19T02:20:47;6.20;99.90
11399;DHT22;5755;48.116;11.608;2023-11-19T02:23:15;6.20;99.90
11399;DHT22;5755;48.116;11.608;2023-11-19T02:25:43;6.30;99.90
11399;DHT22;5755;48.116;11.608;2023-11-19T02:28:17;6.40;99.90
11399;DHT22;5755;48.116;11.608;2023-11-19T02:30:44;6.40;99.90
11399;DHT22;5755;48.116;11.608;2023-11-19T02:33:11;6.50;99.90
11399;DHT22;5755;48.116;11.608;2023-11-19T02:35:38;6.50;99.90
11399;DHT22;5755;48.116;11.608;2023-11-19T02:38:06;6.50;99.90
11399;DHT22;5755;48.116;11.608;2023-11-19T02:40:33;6.50;99.90
11399;DHT22;5755;48.116;11.608;2023-11-19T02:43:00;6.60;99.90
11399;DHT22;5755;48.116;11.608;2023-11-19T02:45:31;6.70;99.90
11399;DHT22;5755;48.116;11.608;2023-11-19T02:47:58;6.70;99.90
11399;DHT22;5755;48.116;11.608;2023-11-19T02:50:27;6.70;99.90
11399;DHT22;5755;48.116;11.608;2023-11-19T02:52:55;6.80;99.90
11399;DHT22;5755;48.116;11.608;2023-11-19T02:55:23;6.80;99.90
11399;DHT22;5755;48.116;11.608;2023-11-19T02:57:50;6.90;99.90
11399;DHT22;5755;48.116;11.608;2023-11-19T03:00:19;7.00;99.90
11399;DHT22;5755;48.116;11.608;2023-11-19T03:02:50;7.10;99.90
11399;DHT22;5755;48.116;11.608;2023-11-19T03:05:25;7.10;99.90
11399;DHT22;5755;48.116;11.608;2023-11-19T03:07:55;7.20;99.90
11399;DHT22;5755;48.116;11.608;2023-11-19T03:10:23;7.10;99.90
11399;DHT22;5755;48.116;11.608;2023-11-19T03:12:51;7.20;99.90
11399;DHT22;5755;48.116;11.608;2023-11-19T03:15:20;7.30;99.90
11399;DHT22;5755;48.116;11.608;2023-11-19T03:17:47;7.30;99.90
11399;DHT22;5755;48.116;11.608;2023-11-19T03:20:16;7.30;99.90
11399;DHT22;5755;48.116;11.608;2023-11-19T03:22:57;7.30;99.90
11399;DHT22;5755;48.116;11.608;2023-11-19T03:25:25;7.40;99.90
11399;DHT22;5755;48.116;11.608;2023-11-19T03:27:52;7.40;99.90
11399;DHT22;5755;48.116;11.608;2023-11-19T03:30:19;7.40;99.90
11399;DHT22;5755;48.116;11.608;2023-11-19T03:32:47;7.40;99.90
11399;DHT22;5755;48.116;11.608;2023-11-19T03:35:16;7.50;99.90
11399;DHT22;5755;48.116;11.608;2023-11-19T03:37:42;7.50;99.90
11399;DHT22;5755;48.116;11.608;2023-11-19T03:40:10;7.60;99.90
11399;DHT22;5755;48.116;11.608;2023-11-19T03:42:37;7.70;99.90
11399;DHT22;5755;48.116;11.608;2023-11-19T03:45:06;7.60;99.90
11399;DHT22;5755;48.116;11.608;2023-11-19T03:47:34;7.60;99.90
11399;DHT22;5755;48.116;11.608;2023-11-19T03:50:01;7.60;99.90
11399;DHT22;5755;48.116;11.608;2023-11-19T03:52:30;7.60;99.90
11399;DHT22;5755;48.116;11.608;2023-11-19T03:54:57;7.60;99.90
11399;DHT22;5755;48.116;11.608;2023-11-19T03:57:24;7.60;99.90
11399;DHT22;5755;48.116;11.608;2023-11-19T03:59:51;7.70;99.90
11399;DHT22;5755;48.116;11.608;2023-11-19T04:02:17;7.80;99.90
11399;DHT22;5755;48.116;11.608;2023-11-19T04:04:44;7.70;99.90
11399;DHT22;5755;48.116;11.608;2023-11-19T04:07:11;7.90;99.90
11399;DHT22;5755;48.116;11.608;2023-11-19T04:09:39;7.90;99.90
11399;DHT22;5755;48.116;11.608;2023-11-19T04:12:07;8.00;99.90
11399;DHT22;5755;48.116;11.608;2023-11-19T04:14:34;7.90;99.90
11399;DHT22;5755;48.116;11.608;2023-11-19T04:17:03;7.90;99.90
11399;DHT22;5755;48.116;11.608;2023-11-19T04:19:30;7.80;99.90
11399;DHT22;5755;48.116;11.608;2023-11-19T04:21:58;7.80;99.90
11399;DHT22;5755;48.116;11.608;2023-11-19T04:24:25;7.80;99.90
11399;DHT22;5755;48.116;11.608;2023-11-19T04:26:53;7.90;99.90
11399;DHT22;5755;48.116;11.608;2023-11-19T04:29:20;7.90;99.90
11399;DHT22;5755;48.116;11.608;2023-11-19T04:31:47;8.00;99.90
11399;DHT22;5755;48.116;11.608;2023-11-19T04:34:14;7.90;99.90
11399;DHT22;5755;48.116;11.608;2023-11-19T04:36:41;7.90;99.90
11399;DHT22;5755;48.116;11.608;2023-11-19T04:39:09;8.00;99.90
11399;DHT22;5755;48.116;11.608;2023-11-19T04:41:46;8.10;99.90
11399;DHT22;5755;48.116;11.608;2023-11-19T04:44:19;8.10;99.90
11399;DHT22;5755;48.116;11.608;2023-11-19T04:46:46;8.00;99.90
11399;DHT22;5755;48.116;11.608;2023-11-19T04:49:13;8.00;99.90
11399;DHT22;5755;48.116;11.608;2023-11-19T04:51:42;8.00;99.90
11399;DHT22;5755;48.116;11.608;2023-11-19T04:54:10;8.10;99.90
11399;DHT22;5755;48.116;11.608;2023-11-19T04:56:37;8.20;99.90
11399;DHT22;5755;48.116;11.608;2023-11-19T04:59:04;8.40;99.90
11399;DHT22;5755;48.116;11.608;2023-11-19T05:01:37;8.60;99.90
11399;DHT22;5755;48.116;11.608;2023-11-19T05:04:04;8.70;99.90
11399;DHT22;5755;48.116;11.608;2023-11-19T05:06:32;8.90;99.90
11399;DHT22;5755;48.116;11.608;2023-11-19T05:09:00;9.10;99.90
11399;DHT22;5755;48.116;11.608;2023-11-19T05:11:30;9.10;99.90
11399;DHT22;5755;48.116;11.608;2023-11-19T05:13:56;9.30;99.90
11399;DHT22;5755;48.116;11.608;2023-11-19T05:16:23;9.50;99.90
11399;DHT22;5755;48.116;11.608;2023-11-19T05:18:51;9.60;99.90
11399;DHT22;5755;48.116;11.608;2023-11-19T05:21:19;9.70;99.90
11399;DHT22;5755;48.116;11.608;2023-11-19T05:23:46;9.70;99.90
11399;DHT22;5755;48.116;11.608;2023-11-19T05:26:17;9.70;99.90
11399;DHT22;5755;48.116;11.608;2023-11-19T05:28:45;9.80;99.90
11399;DHT22;5755;48.116;11.608;2023-11-19T05:31:13;9.90;99.90
11399;DHT22;5755;48.116;11.608;2023-11-19T05:33:40;9.90;99.90
11399;DHT22;5755;48.116;11.608;2023-11-19T05:36:11;9.90;99.90
11399;DHT22;5755;48.116;11.608;2023-11-19T05:38:40;9.90;99.90
11399;DHT22;5755;48.116;11.608;2023-11-19T05:41:07;9.90;99.90
11399;DHT22;5755;48.116;11.608;2023-11-19T05:43:34;9.90;99.90
11399;DHT22;5755;48.116;11.608;2023-11-19T05:46:01;10.00;99.90
11399;DHT22;5755;48.116;11.608;2023-11-19T05:48:28;10.00;99.90
11399;DHT22;5755;48.116;11.608;2023-11-19T05:50:56;9.90;99.90
11399;DHT22;5755;48.116;11.608;2023-11-19T05:53:25;9.90;99.90
11399;DHT22;5755;48.116;11.608;2023-11-19T05:55:52;9.90;99.90
11399;DHT22;5755;48.116;11.608;2023-11-19T05:58:23;10.00;99.90
11399;DHT22;5755;48.116;11.608;2023-11-19T06:00:54;9.90;99.90
11399;DHT22;5755;48.116;11.608;2023-11-19T06:03:21;9.90;99.90
11399;DHT22;5755;48.116;11.608;2023-11-19T06:05:48;9.90;99.90
11399;DHT22;5755;48.116;11.608;2023-11-19T06:08:15;9.90;99.90
11399;DHT22;5755;48.116;11.608;2023-11-19T06:10:44;9.90;99.90
11399;DHT22;5755;48.116;11.608;2023-11-19T06:13:20;9.90;99.90
11399;DHT22;5755;48.116;11.608;2023-11-19T06:15:47;9.90;99.90
11399;DHT22;5755;48.116;11.608;2023-11-19T06:18:14;10.00;99.90
11399;DHT22;5755;48.116;11.608;2023-11-19T06:20:42;10.00;99.90
11399;DHT22;5755;48.116;11.608;2023-11-19T06:23:22;10.00;99.90
11399;DHT22;5755;48.116;11.608;2023-11-19T06:25:51;10.00;99.90
11399;DHT22;5755;48.116;11.608;2023-11-19T06:28:18;9.90;99.90
11399;DHT22;5755;48.116;11.608;2023-11-19T06:30:44;10.00;99.90
11399;DHT22;5755;48.116;11.608;2023-11-19T06:33:13;10.00;99.90
11399;DHT22;5755;48.116;11.608;2023-11-19T06:35:47;10.00;99.90
11399;DHT22;5755;48.116;11.608;2023-11-19T06:38:15;10.10;99.90
11399;DHT22;5755;48.116;11.608;2023-11-19T06:40:42;10.10;99.90
11399;DHT22;5755;48.116;11.608;2023-11-19T06:43:10;10.00;99.90
11399;DHT22;5755;48.116;11.608;2023-11-19T06:45:51;10.10;99.90
11399;DHT22;5755;48.116;11.608;2023-11-19T06:48:19;10.10;99.90
11399;DHT22;5755;48.116;11.608;2023-11-19T06:50:45;10.10;99.90
11399;DHT22;5755;48.116;11.608;2023-11-19T06:53:12;10.20;99.90
11399;DHT22;5755;48.116;11.608;2023-11-19T06:55:39;10.10;99.90
11399;DHT22;5755;48.116;11.608;2023-11-19T06:58:06;10.20;99.90
11399;DHT22;5755;48.116;11.608;2023-11-19T07:00:35;10.30;99.90
11399;DHT22;5755;48.116;11.608;2023-11-19T07:03:02;10.30;99.90
11399;DHT22;5755;48.116;11.608;2023-11-19T07:05:29;10.30;99.90
11399;DHT22;5755;48.116;11.608;2023-11-19T07:07:58;10.20;99.90
11399;DHT22;5755;48.116;11.608;2023-11-19T07:10:26;10.30;99.90
11399;DHT22;5755;48.116;11.608;2023-11-19T07:12:56;10.40;99.90
11399;DHT22;5755;48.116;11.608;2023-11-19T07:15:24;10.40;99.90
11399;DHT22;5755;48.116;11.608;2023-11-19T07:17:52;10.40;99.90
11399;DHT22;5755;48.116;11.608;2023-11-19T07:20:22;10.40;99.90
11399;DHT22;5755;48.116;11.608;2023-11-19T07:22:48;10.40;99.90
11399;DHT22;5755;48.116;11.608;2023-11-19T07:25:14;10.50;99.90
11399;DHT22;5755;48.116;11.608;2023-11-19T07:27:41;10.60;99.90
11399;DHT22;5755;48.116;11.608;2023-11-19T07:30:09;10.60;99.90
11399;DHT22;5755;48.116;11.608;2023-11-19T07:32:36;10.60;99.90
11399;DHT22;5755;48.116;11.608;2023-11-19T07:35:06;10.60;99.90
11399;DHT22;5755;48.116;11.608;2023-11-19T07:37:33;10.60;99.90
11399;DHT22;5755;48.116;11.608;2023-11-19T07:40:01;10.60;99.90
11399;DHT22;5755;48.116;11.608;2023-11-19T07:42:28;10.70;99.90
11399;DHT22;5755;48.116;11.608;2023-11-19T07:44:56;10.70;99.90
11399;DHT22;5755;48.116;11.608;2023-11-19T07:47:23;10.70;99.90
11399;DHT22;5755;48.116;11.608;2023-11-19T07:49:50;10.70;99.90
11399;DHT22;5755;48.116;11.608;2023-11-19T07:52:18;10.70;99.90
11399;DHT22;5755;48.116;11.608;2023-11-19T07:55:01;10.80;99.90
11399;DHT22;5755;48.116;11.608;2023-11-19T07:57:28;10.80;99.90
11399;DHT22;5755;48.116;11.608;2023-11-19T07:59:56;10.80;99.90
11399;DHT22;5755;48.116;11.608;2023-11-19T08:02:38;10.80;99.90
11399;DHT22;5755;48.116;11.608;2023-11-19T08:05:07;10.80;99.90
11399;DHT22;5755;48.116;11.608;2023-11-19T08:07:55;10.90;99.90
11399;DHT22;5755;48.116;11.608;2023-11-19T08:10:36;10.90;99.90
11399;DHT22;5755;48.116;11.608;2023-11-19T08:13:05;10.90;99.90
11399;DHT22;5755;48.116;11.608;2023-11-19T08:15:51;10.90;99.90
11399;DHT22;5755;48.116;11.608;2023-11-19T08:18:18;10.90;99.90
11399;DHT22;5755;48.116;11.608;2023-11-19T08:20:45;10.90;99.90
11399;DHT22;5755;48.116;11.608;2023-11-19T08:23:17;10.90;99.90
11399;DHT22;5755;48.116;11.608;2023-11-19T08:25:43;11.00;99.90
11399;DHT22;5755;48.116;11.608;2023-11-19T08:28:11;11.10;99.90
11399;DHT22;5755;48.116;11.608;2023-11-19T08:30:38;11.10;99.90
11399;DHT22;5755;48.116;11.608;2023-11-19T08:33:20;11.20;99.90
11399;DHT22;5755;48.116;11.608;2023-11-19T08:36:02;11.20;99.90
11399;DHT22;5755;48.116;11.608;2023-11-19T08:41:58;11.30;99.90
11399;DHT22;5755;48.116;11.608;2023-11-19T08:44:27;11.30;99.90
11399;DHT22;5755;48.116;11.608;2023-11-19T08:46:54;11.30;99.90
11399;DHT22;5755;48.116;11.608;2023-11-19T08:49:21;11.30;99.90
11399;DHT22;5755;48.116;11.608;2023-11-19T08:51:50;11.30;99.90
11399;DHT22;5755;48.116;11.608;2023-11-19T08:54:18;11.40;99.90
11399;DHT22;5755;48.116;11.608;2023-11-19T08:56:49;11.50;99.90
11399;DHT22;5755;48.116;11.608;2023-11-19T08:59:30;11.50;99.90
11399;DHT22;5755;48.116;11.608;2023-11-19T09:01:58;11.60;99.90
11399;DHT22;5755;48.116;11.608;2023-11-19T09:04:25;11.60;99.90
11399;DHT22;5755;48.116;11.608;2023-11-19T09:06:52;11.60;99.90
11399;DHT22;5755;48.116;11.608;2023-11-19T09:09:35;11.60;99.90
11399;DHT22;5755;48.116;11.608;2023-11-19T09:12:02;11.80;99.90
11399;DHT22;5755;48.116;11.608;2023-11-19T09:18:03;12.00;99.90
11399;DHT22;5755;48.116;11.608;2023-11-19T09:20:30;12.10;99.90
11399;DHT22;5755;48.116;11.608;2023-11-19T09:23:04;12.00;99.90
11399;DHT22;5755;48.116;11.608;2023-11-19T09:25:49;12.00;99.90
11399;DHT22;5755;48.116;11.608;2023-11-19T09:28:29;12.00;99.90
11399;DHT22;5755;48.116;11.608;2023-11-19T09:30:58;12.10;99.90
11399;DHT22;5755;48.116;11.608;2023-11-19T09:33:38;12.10;99.90
11399;DHT22;5755;48.116;11.608;2023-11-19T09:36:07;12.20;99.90
11399;DHT22;5755;48.116;11.608;2023-11-19T09:38:36;12.40;99.90
11399;DHT22;5755;48.116;11.608;2023-11-19T09:41:06;12.40;99.90
11399;DHT22;5755;48.116;11.608;2023-11-19T09:43:35;12.50;99.90
11399;DHT22;5755;48.116;11.608;2023-11-19T09:46:05;12.60;99.90
11399;DHT22;5755;48.116;11.608;2023-11-19T09:48:33;12.60;99.90
11399;DHT22;5755;48.116;11.608;2023-11-19T09:51:02;12.60;99.90
11399;DHT22;5755;48.116;11.608;2023-11-19T09:53:32;12.40;99.90
11399;DHT22;5755;48.116;11.608;2023-11-19T09:56:00;12.30;99.90
11399;DHT22;5755;48.116;11.608;2023-11-19T09:58:43;12.20;99.90
11399;DHT22;5755;48.116;11.608;2023-11-19T10:01:31;12.30;99.90
11399;DHT22;5755;48.116;11.608;2023-11-19T10:04:29;12.30;99.90
11399;DHT22;5755;48.116;11.608;2023-11-19T10:06:56;12.40;99.90
11399;DHT22;5755;48.116;11.608;2023-11-19T10:09:24;12.60;99.90
11399;DHT22;5755;48.116;11.608;2023-11-19T10:11:54;12.70;99.90
11399;DHT22;5755;48.116;11.608;2023-11-19T10:14:40;13.00;99.90
11399;DHT22;5755;48.116;11.608;2023-11-19T10:17:51;13.00;99.90
11399;DHT22;5755;48.116;11.608;2023-11-19T10:20:36;13.00;99.90
11399;DHT22;5755;48.116;11.608;2023-11-19T10:23:03;13.20;99.90
11399;DHT22;5755;48.116;11.608;2023-11-19T10:25:31;13.10;99.90
11399;DHT22;5755;48.116;11.608;2023-11-19T10:28:19;13.10;99.90
11399;DHT22;5755;48.116;11.608;2023-11-19T10:30:48;13.10;99.90
11399;DHT22;5755;48.116;11.608;2023-11-19T10:33:30;13.20;99.90
11399;DHT22;5755;48.116;11.608;2023-11-19T10:36:11;13.30;99.90
11399;DHT22;5755;48.116;11.608;2023-11-19T10:39:00;13.70;99.90
11399;DHT22;5755;48.116;11.608;2023-11-19T10:44:32;13.70;99.90
11399;DHT22;5755;48.116;11.608;2023-11-19T10:47:05;13.80;99.90
11399;DHT22;5755;48.116;11.608;2023-11-19T10:49:39;14.00;99.90
11399;DHT22;5755;48.116;11.608;2023-11-19T10:52:08;14.40;99.90
11399;DHT22;5755;48.116;11.608;2023-11-19T10:54:35;14.70;99.90
11399;DHT22;5755;48.116;11.608;2023-11-19T10:57:05;14.80;98.70
11399;DHT22;5755;48.116;11.608;2023-11-19T10:59:49;14.80;98.40
11399;DHT22;5755;48.116;11.608;2023-11-19T11:05:35;14.50;98.40
11399;DHT22;5755;48.116;11.608;2023-11-19T11:08:06;14.30;98.30
11399;DHT22;5755;48.116;11.608;2023-11-19T11:10:58;14.10;99.30
11399;DHT22;5755;48.116;11.608;2023-11-19T11:13:26;14.00;99.30
11399;DHT22;5755;48.116;11.608;2023-11-19T11:15:59;14.00;99.70
11399;DHT22;5755;48.116;11.608;2023-11-19T11:18:28;13.80;99.80
11399;DHT22;5755;48.116;11.608;2023-11-19T11:21:12;13.90;99.90
11399;DHT22;5755;48.116;11.608;2023-11-19T11:30:28;14.00;99.30
11399;DHT22;5755;48.116;11.608;2023-11-19T11:36:15;14.00;99.00
11399;DHT22;5755;48.116;11.608;2023-11-19T11:38:58;14.20;98.60
11399;DHT22;5755;48.116;11.608;2023-11-19T11:41:40;14.20;98.80
11399;DHT22;5755;48.116;11.608;2023-11-19T11:44:07;14.10;99.00
11399;DHT22;5755;48.116;11.608;2023-11-19T11:46:54;14.20;98.30
11399;DHT22;5755;48.116;11.608;2023-11-19T11:49:35;14.20;98.30
11399;DHT22;5755;48.116;11.608;2023-11-19T11:58:40;14.40;97.40
11399;DHT22;5755;48.116;11.608;2023-11-19T12:01:21;14.50;97.60
11399;DHT22;5755;48.116;11.608;2023-11-19T12:04:09;14.70;96.80
11399;DHT22;5755;48.116;11.608;2023-11-19T12:07:08;14.70;96.80
11399;DHT22;5755;48.116;11.608;2023-11-19T12:09:55;14.80;96.90
11399;DHT22;5755;48.116;11.608;2023-11-19T12:12:33;14.70;96.10
11399;DHT22;5755;48.116;11.608;2023-11-19T12:15:06;14.70;96.80
11399;DHT22;5755;48.116;11.608;2023-11-19T12:17:48;14.60;96.60
11399;DHT22;5755;48.116;11.608;2023-11-19T12:20:33;14.70;96.80
11399;DHT22;5755;48.116;11.608;2023-11-19T12:26:08;14.60;96.60
11399;DHT22;5755;48.116;11.608;2023-11-19T12:28:57;14.60;96.60
11399;DHT22;5755;48.116;11.608;2023-11-19T12:31:44;14.50;96.30
11399;DHT22;5755;48.116;11.608;2023-11-19T12:34:34;14.40;96.40
11399;DHT22;5755;48.116;11.608;2023-11-19T12:37:26;14.40;95.90
11399;DHT22;5755;48.116;11.608;2023-11-19T12:40:16;14.40;96.20
11399;DHT22;5755;48.116;11.608;2023-11-19T12:43:05;14.40;95.90
11399;DHT22;5755;48.116;11.608;2023-11-19T12:45:35;14.20;96.10
11399;DHT22;5755;48.116;11.608;2023-11-19T12:48:07;14.30;96.50
11399;DHT22;5755;48.116;11.608;2023-11-19T12:50:57;14.30;96.20
11399;DHT22;5755;48.116;11.608;2023-11-19T12:54:01;14.30;95.70
11399;DHT22;5755;48.116;11.608;2023-11-19T13:03:29;14.60;94.90
11399;DHT22;5755;48.116;11.608;2023-11-19T13:06:11;14.70;95.40
11399;DHT22;5755;48.116;11.608;2023-11-19T13:08:39;14.80;94.70
11399;DHT22;5755;48.116;11.608;2023-11-19T13:11:07;14.80;94.50
11399;DHT22;5755;48.116;11.608;2023-11-19T13:13:55;14.70;94.90
11399;DHT22;5755;48.116;11.608;2023-11-19T13:16:24;14.80;94.40
11399;DHT22;5755;48.116;11.608;2023-11-19T13:19:06;14.80;94.20
11399;DHT22;5755;48.116;11.608;2023-11-19T13:21:34;14.70;94.90
11399;DHT22;5755;48.116;11.608;2023-11-19T13:24:15;14.70;94.70
11399;DHT22;5755;48.116;11.608;2023-11-19T13:26:42;14.70;94.70
11399;DHT22;5755;48.116;11.608;2023-11-19T13:29:23;14.60;95.00
11399;DHT22;5755;48.116;11.608;2023-11-19T13:31:51;14.40;95.40
11399;DHT22;5755;48.116;11.608;2023-11-19T13:34:19;14.40;95.90
11399;DHT22;5755;48.116;11.608;2023-11-19T13:36:46;14.40;95.30
11399;DHT22;5755;48.116;11.608;2023-11-19T13:39:13;14.40;95.40
11399;DHT22;5755;48.116;11.608;2023-11-19T13:41:54;14.30;95.80
11399;DHT22;5755;48.116;11.608;2023-11-19T13:44:22;14.30;96.40
11399;DHT22;5755;48.116;11.608;2023-11-19T13:46:51;14.30;96.00
11399;DHT22;5755;48.116;11.608;2023-11-19T13:49:18;14.30;95.70
11399;DHT22;5755;48.116;11.608;2023-11-19T13:51:45;14.20;95.90
11399;DHT22;5755;48.116;11.608;2023-11-19T13:54:12;14.20;96.80
11399;DHT22;5755;48.116;11.608;2023-11-19T13:56:39;14.00;96.70
11399;DHT22;5755;48.116;11.608;2023-11-19T13:59:07;13.90;96.90
11399;DHT22;5755;48.116;11.608;2023-11-19T14:01:45;13.80;97.30
11399;DHT22;5755;48.116;11.608;2023-11-19T14:07:56;13.90;96.90
11399;DHT22;5755;48.116;11.608;2023-11-19T14:10:39;14.00;96.70
11399;DHT22;5755;48.116;11.608;2023-11-19T14:13:19;13.90;97.10
11399;DHT22;5755;48.116;11.608;2023-11-19T14:15:59;13.90;97.70
11399;DHT22;5755;48.116;11.608;2023-11-19T14:18:29;13.80;97.70
11399;DHT22;5755;48.116;11.608;2023-11-19T14:20:59;13.80;97.90
11399;DHT22;5755;48.116;11.608;2023-11-19T14:23:29;13.80;98.00
11399;DHT22;5755;48.116;11.608;2023-11-19T14:26:02;13.90;97.90
11399;DHT22;5755;48.116;11.608;2023-11-19T14:28:32;13.90;97.80
11399;DHT22;5755;48.116;11.608;2023-11-19T14:30:59;13.90;97.70
11399;DHT22;5755;48.116;11.608;2023-11-19T14:33:41;13.90;97.40
11399;DHT22;5755;48.116;11.608;2023-11-19T14:36:18;13.90;97.70
11399;DHT22;5755;48.116;11.608;2023-11-19T14:39:07;13.80;97.60
11399;DHT22;5755;48.116;11.608;2023-11-19T14:44:55;13.80;96.90
11399;DHT22;5755;48.116;11.608;2023-11-19T14:47:55;13.70;96.60
11399;DHT22;5755;48.116;11.608;2023-11-19T14:50:24;13.80;96.60
11399;DHT22;5755;48.116;11.608;2023-11-19T14:53:11;13.80;96.60
11399;DHT22;5755;48.116;11.608;2023-11-19T14:59:42;13.70;96.60
11399;DHT22;5755;48.116;11.608;2023-11-19T15:02:09;13.50;96.70
11399;DHT22;5755;48.116;11.608;2023-11-19T15:04:36;13.50;96.60
11399;DHT22;5755;48.116;11.608;2023-11-19T15:07:17;13.40;96.90
11399;DHT22;5755;48.116;11.608;2023-11-19T15:10:07;13.20;97.60
11399;DHT22;5755;48.116;11.608;2023-11-19T15:12:48;13.10;98.00
11399;DHT22;5755;48.116;11.608;2023-11-19T15:15:16;13.10;97.50
11399;DHT22;5755;48.116;11.608;2023-11-19T15:17:57;13.10;97.60
11399;DHT22;5755;48.116;11.608;2023-11-19T15:20:38;13.00;97.90
11399;DHT22;5755;48.116;11.608;2023-11-19T15:23:05;13.00;98.20
11399;DHT22;5755;48.116;11.608;2023-11-19T15:25:35;12.80;98.20
11399;DHT22;5755;48.116;11.608;2023-11-19T15:28:16;12.70;98.50
11399;DHT22;5755;48.116;11.608;2023-11-19T15:30:46;12.60;99.10
11399;DHT22;5755;48.116;11.608;2023-11-19T15:33:26;12.60;99.00
11399;DHT22;5755;48.116;11.608;2023-11-19T15:36:09;12.50;99.40
11399;DHT22;5755;48.116;11.608;2023-11-19T15:38:50;12.40;99.70
11399;DHT22;5755;48.116;11.608;2023-11-19T15:41:30;12.50;99.70
11399;DHT22;5755;48.116;11.608;2023-11-19T15:43:58;12.50;99.70
11399;DHT22;5755;48.116;11.608;2023-11-19T15:46:27;12.40;99.90
11399;DHT22;5755;48.116;11.608;2023-11-19T15:49:11;12.30;99.90
11399;DHT22;5755;48.116;11.608;2023-11-19T15:51:39;12.30;99.90
11399;DHT22;5755;48.116;11.608;2023-11-19T15:54:06;12.20;99.90
11399;DHT22;5755;48.116;11.608;2023-11-19T15:56:47;12.10;99.90
11399;DHT22;5755;48.116;11.608;2023-11-19T15:59:14;12.50;99.90
11399;DHT22;5755;48.116;11.608;2023-11-19T16:01:43;12.60;99.90
11399;DHT22;5755;48.116;11.608;2023-11-19T16:04:28;12.80;99.90
11399;DHT22;5755;48.116;11.608;2023-11-19T16:06:55;12.90;99.90
11399;DHT22;5755;48.116;11.608;2023-11-19T16:09:21;12.90;99.60
11399;DHT22;5755;48.116;11.608;2023-11-19T16:11:48;12.90;99.00
11399;DHT22;5755;48.116;11.608;2023-11-19T16:14:15;12.90;99.00
11399;DHT22;5755;48.116;11.608;2023-11-19T16:16:44;12.80;99.00
11399;DHT22;5755;48.116;11.608;2023-11-19T16:19:48;12.60;99.60
11399;DHT22;5755;48.116;11.608;2023-11-19T16:22:18;12.50;99.90
11399;DHT22;5755;48.116;11.608;2023-11-19T16:24:46;12.50;99.90
11399;DHT22;5755;48.116;11.608;2023-11-19T16:27:14;12.50;99.90
11399;DHT22;5755;48.116;11.608;2023-11-19T16:30:01;12.40;99.90
11399;DHT22;5755;48.116;11.608;2023-11-19T16:32:48;12.40;99.90
11399;DHT22;5755;48.116;11.608;2023-11-19T16:35:37;12.30;99.90
11399;DHT22;5755;48.116;11.608;2023-11-19T16:38:06;12.20;99.90
11399;DHT22;5755;48.116;11.608;2023-11-19T16:40:47;12.30;99.90
11399;DHT22;5755;48.116;11.608;2023-11-19T16:43:16;12.30;99.90
11399;DHT22;5755;48.116;11.608;2023-11-19T16:45:44;12.10;99.90
11399;DHT22;5755;48.116;11.608;2023-11-19T16:48:13;12.00;99.90
11399;DHT22;5755;48.116;11.608;2023-11-19T16:51:13;12.00;99.90
11399;DHT22;5755;48.116;11.608;2023-11-19T16:53:45;11.90;99.90
11399;DHT22;5755;48.116;11.608;2023-11-19T16:56:26;11.90;99.90
11399;DHT22;5755;48.116;11.608;2023-11-19T16:58:53;11.90;99.90